sensor_id;sensor_type;location;lat;lon;timestamp;P1;durP1;ratioP1;P2;durP2;ratioP2
7497;SDS011;3790;48.806;9.140;2023-02-13T00:03:24;22.70;;;15.23;;
7497;SDS011;3790;48.806;9.140;2023-02-13T00:08:25;18.30;;;14.03;;
7497;SDS011;3790;48.806;9.140;2023-02-13T00:13:25;17.47;;;14.13;;
7497;SDS011;3790;48.806;9.140;2023-02-13T00:18:26;18.47;;;13.67;;
7497;SDS011;3790;48.806;9.140;2023-02-13T00:23:28;20.87;;;15.13;;
7497;SDS011;3790;48.806;9.140;2023-02-13T00:28:30;21.83;;;15.17;;
7497;SDS011;3790;48.806;9.140;2023-02-13T00:33:31;24.10;;;16.80;;
7497;SDS011;3790;48.806;9.140;2023-02-13T00:38:31;21.07;;;14.83;;
7497;SDS011;3790;48.806;9.140;2023-02-13T00:43:32;24.33;;;15.07;;
7497;SDS011;3790;48.806;9.140;2023-02-13T00:48:33;29.43;;;18.10;;
7497;SDS011;3790;48.806;9.140;2023-02-13T00:53:34;22.67;;;17.13;;
7497;SDS011;3790;48.806;9.140;2023-02-13T00:58:36;22.27;;;16.60;;
7497;SDS011;3790;48.806;9.140;2023-02-13T01:03:37;23.07;;;16.97;;
7497;SDS011;3790;48.806;9.140;2023-02-13T01:08:38;29.83;;;19.87;;
7497;SDS011;3790;48.806;9.140;2023-02-13T01:13:39;26.97;;;18.57;;
7497;SDS011;3790;48.806;9.140;2023-02-13T01:18:39;26.33;;;19.10;;
7497;SDS011;3790;48.806;9.140;2023-02-13T01:23:40;26.13;;;19.30;;
7497;SDS011;3790;48.806;9.140;2023-02-13T01:28:40;26.57;;;19.87;;
7497;SDS011;3790;48.806;9.140;2023-02-13T01:33:41;27.60;;;20.53;;
7497;SDS011;3790;48.806;9.140;2023-02-13T01:38:41;36.27;;;24.43;;
7497;SDS011;3790;48.806;9.140;2023-02-13T01:43:43;31.13;;;23.63;;
7497;SDS011;3790;48.806;9.140;2023-02-13T01:48:46;30.50;;;22.07;;
7497;SDS011;3790;48.806;9.140;2023-02-13T01:53:53;30.00;;;20.57;;
7497;SDS011;3790;48.806;9.140;2023-02-13T01:59:00;29.97;;;21.17;;
7497;SDS011;3790;48.806;9.140;2023-02-13T02:04:07;35.97;;;24.53;;
7497;SDS011;3790;48.806;9.140;2023-02-13T02:09:16;32.67;;;23.20;;
7497;SDS011;3790;48.806;9.140;2023-02-13T02:14:21;29.80;;;20.57;;
7497;SDS011;3790;48.806;9.140;2023-02-13T02:19:38;28.03;;;20.77;;
7497;SDS011;3790;48.806;9.140;2023-02-13T02:30:37;38.13;;;27.20;;
7497;SDS011;3790;48.806;9.140;2023-02-13T02:46:07;32.60;;;22.17;;
7497;SDS011;3790;48.806;9.140;2023-02-13T02:56:39;28.90;;;21.17;;
7497;SDS011;3790;48.806;9.140;2023-02-13T03:01:42;31.57;;;21.53;;
7497;SDS011;3790;48.806;9.140;2023-02-13T03:07:05;27.87;;;20.17;;
7497;SDS011;3790;48.806;9.140;2023-02-13T03:12:07;31.10;;;22.20;;
7497;SDS011;3790;48.806;9.140;2023-02-13T03:17:27;44.37;;;25.93;;
7497;SDS011;3790;48.806;9.140;2023-02-13T03:22:59;35.83;;;23.70;;
7497;SDS011;3790;48.806;9.140;2023-02-13T03:28:16;36.33;;;25.53;;
7497;SDS011;3790;48.806;9.140;2023-02-13T03:39:07;34.10;;;23.33;;
7497;SDS011;3790;48.806;9.140;2023-02-13T03:49:28;33.57;;;24.70;;
7497;SDS011;3790;48.806;9.140;2023-02-13T03:54:52;43.33;;;27.90;;
7497;SDS011;3790;48.806;9.140;2023-02-13T04:00:15;50.77;;;27.87;;
7497;SDS011;3790;48.806;9.140;2023-02-13T04:05:21;37.63;;;26.47;;
7497;SDS011;3790;48.806;9.140;2023-02-13T04:10:28;34.97;;;25.93;;
7497;SDS011;3790;48.806;9.140;2023-02-13T04:15:35;33.80;;;25.23;;
7497;SDS011;3790;48.806;9.140;2023-02-13T04:20:45;36.97;;;25.67;;
7497;SDS011;3790;48.806;9.140;2023-02-13T04:25:46;43.87;;;27.80;;
7497;SDS011;3790;48.806;9.140;2023-02-13T04:30:50;41.00;;;29.87;;
7497;SDS011;3790;48.806;9.140;2023-02-13T04:35:50;43.57;;;27.40;;
7497;SDS011;3790;48.806;9.140;2023-02-13T04:40:51;39.13;;;28.77;;
7497;SDS011;3790;48.806;9.140;2023-02-13T04:45:51;39.43;;;24.90;;
7497;SDS011;3790;48.806;9.140;2023-02-13T04:50:52;36.90;;;26.03;;
7497;SDS011;3790;48.806;9.140;2023-02-13T04:55:52;42.43;;;28.53;;
7497;SDS011;3790;48.806;9.140;2023-02-13T05:00:53;37.90;;;26.83;;
7497;SDS011;3790;48.806;9.140;2023-02-13T05:05:53;38.83;;;29.03;;
7497;SDS011;3790;48.806;9.140;2023-02-13T05:10:54;43.87;;;29.03;;
7497;SDS011;3790;48.806;9.140;2023-02-13T05:15:56;44.10;;;30.17;;
7497;SDS011;3790;48.806;9.140;2023-02-13T05:20:57;46.53;;;30.23;;
7497;SDS011;3790;48.806;9.140;2023-02-13T05:26:16;49.37;;;29.13;;
7497;SDS011;3790;48.806;9.140;2023-02-13T05:31:16;44.50;;;29.20;;
7497;SDS011;3790;48.806;9.140;2023-02-13T05:36:17;43.17;;;27.90;;
7497;SDS011;3790;48.806;9.140;2023-02-13T05:41:17;45.43;;;29.60;;
7497;SDS011;3790;48.806;9.140;2023-02-13T05:46:18;49.37;;;27.93;;
7497;SDS011;3790;48.806;9.140;2023-02-13T05:51:18;44.97;;;27.27;;
7497;SDS011;3790;48.806;9.140;2023-02-13T05:56:19;43.73;;;28.17;;
7497;SDS011;3790;48.806;9.140;2023-02-13T06:01:20;41.20;;;25.63;;
7497;SDS011;3790;48.806;9.140;2023-02-13T06:06:22;42.17;;;26.60;;
7497;SDS011;3790;48.806;9.140;2023-02-13T06:11:23;36.87;;;24.97;;
7497;SDS011;3790;48.806;9.140;2023-02-13T06:16:23;36.93;;;24.87;;
7497;SDS011;3790;48.806;9.140;2023-02-13T06:21:24;43.30;;;26.50;;
7497;SDS011;3790;48.806;9.140;2023-02-13T06:26:24;47.10;;;29.77;;
7497;SDS011;3790;48.806;9.140;2023-02-13T06:31:25;42.17;;;26.60;;
7497;SDS011;3790;48.806;9.140;2023-02-13T06:36:25;45.13;;;28.93;;
7497;SDS011;3790;48.806;9.140;2023-02-13T06:41:26;45.30;;;27.03;;
7497;SDS011;3790;48.806;9.140;2023-02-13T06:46:26;39.17;;;27.17;;
7497;SDS011;3790;48.806;9.140;2023-02-13T06:51:27;34.97;;;26.73;;
7497;SDS011;3790;48.806;9.140;2023-02-13T06:56:27;39.10;;;26.33;;
7497;SDS011;3790;48.806;9.140;2023-02-13T07:01:28;46.17;;;28.50;;
7497;SDS011;3790;48.806;9.140;2023-02-13T07:06:28;45.73;;;27.77;;
7497;SDS011;3790;48.806;9.140;2023-02-13T07:11:29;39.13;;;23.40;;
7497;SDS011;3790;48.806;9.140;2023-02-13T07:16:30;37.87;;;24.70;;
7497;SDS011;3790;48.806;9.140;2023-02-13T07:21:31;31.53;;;22.70;;
7497;SDS011;3790;48.806;9.140;2023-02-13T07:26:31;38.23;;;24.60;;
7497;SDS011;3790;48.806;9.140;2023-02-13T07:31:32;39.53;;;25.83;;
7497;SDS011;3790;48.806;9.140;2023-02-13T07:36:33;36.33;;;24.77;;
7497;SDS011;3790;48.806;9.140;2023-02-13T07:41:34;40.63;;;25.23;;
7497;SDS011;3790;48.806;9.140;2023-02-13T07:46:34;38.27;;;24.87;;
7497;SDS011;3790;48.806;9.140;2023-02-13T07:51:35;36.57;;;25.03;;
7497;SDS011;3790;48.806;9.140;2023-02-13T07:56:35;39.60;;;25.40;;
7497;SDS011;3790;48.806;9.140;2023-02-13T08:01:36;38.90;;;26.77;;
7497;SDS011;3790;48.806;9.140;2023-02-13T08:06:40;44.10;;;26.90;;
7497;SDS011;3790;48.806;9.140;2023-02-13T08:11:41;39.30;;;27.07;;
7497;SDS011;3790;48.806;9.140;2023-02-13T08:16:54;41.53;;;27.10;;
7497;SDS011;3790;48.806;9.140;2023-02-13T08:21:55;40.20;;;27.23;;
7497;SDS011;3790;48.806;9.140;2023-02-13T08:26:56;43.43;;;26.70;;
7497;SDS011;3790;48.806;9.140;2023-02-13T08:31:56;34.70;;;25.73;;
7497;SDS011;3790;48.806;9.140;2023-02-13T08:37:00;36.43;;;27.47;;
7497;SDS011;3790;48.806;9.140;2023-02-13T08:42:01;34.90;;;25.80;;
7497;SDS011;3790;48.806;9.140;2023-02-13T08:47:02;39.63;;;26.30;;
7497;SDS011;3790;48.806;9.140;2023-02-13T08:52:03;37.03;;;26.57;;
7497;SDS011;3790;48.806;9.140;2023-02-13T08:57:04;30.20;;;21.80;;
7497;SDS011;3790;48.806;9.140;2023-02-13T09:02:05;31.80;;;23.07;;
7497;SDS011;3790;48.806;9.140;2023-02-13T09:07:06;27.57;;;21.07;;
7497;SDS011;3790;48.806;9.140;2023-02-13T09:12:06;28.80;;;22.50;;
7497;SDS011;3790;48.806;9.140;2023-02-13T09:17:07;24.80;;;19.57;;
7497;SDS011;3790;48.806;9.140;2023-02-13T09:22:07;29.23;;;20.13;;
7497;SDS011;3790;48.806;9.140;2023-02-13T09:27:08;26.33;;;17.60;;
7497;SDS011;3790;48.806;9.140;2023-02-13T09:32:08;21.50;;;17.27;;
7497;SDS011;3790;48.806;9.140;2023-02-13T09:37:09;23.83;;;17.67;;
7497;SDS011;3790;48.806;9.140;2023-02-13T09:42:32;21.67;;;15.37;;
7497;SDS011;3790;48.806;9.140;2023-02-13T09:47:36;25.33;;;14.73;;
7497;SDS011;3790;48.806;9.140;2023-02-13T09:52:40;20.17;;;13.33;;
7497;SDS011;3790;48.806;9.140;2023-02-13T10:03:14;17.53;;;13.23;;
7497;SDS011;3790;48.806;9.140;2023-02-13T10:08:26;15.90;;;11.83;;
7497;SDS011;3790;48.806;9.140;2023-02-13T10:19:30;14.03;;;10.10;;
7497;SDS011;3790;48.806;9.140;2023-02-13T10:24:39;18.47;;;10.70;;
7497;SDS011;3790;48.806;9.140;2023-02-13T10:35:09;13.07;;;9.13;;
7497;SDS011;3790;48.806;9.140;2023-02-13T10:40:19;13.60;;;9.67;;
7497;SDS011;3790;48.806;9.140;2023-02-13T10:50:47;11.83;;;8.53;;
7497;SDS011;3790;48.806;9.140;2023-02-13T10:56:09;13.13;;;7.90;;
7497;SDS011;3790;48.806;9.140;2023-02-13T11:01:31;9.90;;;7.63;;
7497;SDS011;3790;48.806;9.140;2023-02-13T11:06:53;11.83;;;7.10;;
7497;SDS011;3790;48.806;9.140;2023-02-13T11:11:56;9.83;;;7.53;;
7497;SDS011;3790;48.806;9.140;2023-02-13T11:17:00;8.43;;;5.80;;
7497;SDS011;3790;48.806;9.140;2023-02-13T11:22:05;7.77;;;6.43;;
7497;SDS011;3790;48.806;9.140;2023-02-13T11:27:10;8.57;;;5.03;;
7497;SDS011;3790;48.806;9.140;2023-02-13T11:37:15;7.70;;;5.03;;
7497;SDS011;3790;48.806;9.140;2023-02-13T11:42:23;7.30;;;5.33;;
7497;SDS011;3790;48.806;9.140;2023-02-13T11:47:30;9.07;;;5.90;;
7497;SDS011;3790;48.806;9.140;2023-02-13T11:52:32;6.67;;;4.57;;
7497;SDS011;3790;48.806;9.140;2023-02-13T11:57:35;6.20;;;5.20;;
7497;SDS011;3790;48.806;9.140;2023-02-13T12:02:44;6.87;;;4.67;;
7497;SDS011;3790;48.806;9.140;2023-02-13T12:07:48;6.57;;;4.27;;
7497;SDS011;3790;48.806;9.140;2023-02-13T12:18:27;5.73;;;3.63;;
7497;SDS011;3790;48.806;9.140;2023-02-13T12:29:30;4.87;;;3.40;;
7497;SDS011;3790;48.806;9.140;2023-02-13T13:01:19;7.17;;;4.67;;
7497;SDS011;3790;48.806;9.140;2023-02-13T13:17:49;8.77;;;4.80;;
7497;SDS011;3790;48.806;9.140;2023-02-13T13:23:10;7.97;;;4.77;;
7497;SDS011;3790;48.806;9.140;2023-02-13T13:28:17;6.13;;;4.47;;
7497;SDS011;3790;48.806;9.140;2023-02-13T13:33:22;5.50;;;4.43;;
7497;SDS011;3790;48.806;9.140;2023-02-13T13:38:28;7.47;;;4.73;;
7497;SDS011;3790;48.806;9.140;2023-02-13T13:43:56;5.87;;;4.43;;
7497;SDS011;3790;48.806;9.140;2023-02-13T13:49:16;5.67;;;4.07;;
7497;SDS011;3790;48.806;9.140;2023-02-13T13:54:32;6.40;;;4.70;;
7497;SDS011;3790;48.806;9.140;2023-02-13T14:04:38;8.23;;;5.00;;
7497;SDS011;3790;48.806;9.140;2023-02-13T14:09:42;7.20;;;4.63;;
7497;SDS011;3790;48.806;9.140;2023-02-13T14:14:43;6.77;;;4.10;;
7497;SDS011;3790;48.806;9.140;2023-02-13T14:19:46;7.73;;;4.73;;
7497;SDS011;3790;48.806;9.140;2023-02-13T14:24:55;5.03;;;3.93;;
7497;SDS011;3790;48.806;9.140;2023-02-13T14:29:58;6.77;;;4.63;;
7497;SDS011;3790;48.806;9.140;2023-02-13T14:35:00;5.40;;;3.40;;
7497;SDS011;3790;48.806;9.140;2023-02-13T14:45:23;7.40;;;4.13;;
7497;SDS011;3790;48.806;9.140;2023-02-13T14:50:34;5.50;;;4.10;;
7497;SDS011;3790;48.806;9.140;2023-02-13T14:55:44;6.23;;;4.40;;
7497;SDS011;3790;48.806;9.140;2023-02-13T15:01:05;6.03;;;4.50;;
7497;SDS011;3790;48.806;9.140;2023-02-13T15:06:25;6.33;;;4.10;;
7497;SDS011;3790;48.806;9.140;2023-02-13T15:11:36;5.30;;;4.13;;
7497;SDS011;3790;48.806;9.140;2023-02-13T15:16:41;5.90;;;4.10;;
7497;SDS011;3790;48.806;9.140;2023-02-13T15:22:05;6.73;;;3.57;;
7497;SDS011;3790;48.806;9.140;2023-02-13T15:27:06;6.83;;;4.30;;
7497;SDS011;3790;48.806;9.140;2023-02-13T15:32:16;5.87;;;4.33;;
7497;SDS011;3790;48.806;9.140;2023-02-13T15:37:22;7.87;;;4.53;;
7497;SDS011;3790;48.806;9.140;2023-02-13T15:42:23;4.87;;;3.60;;
7497;SDS011;3790;48.806;9.140;2023-02-13T15:47:28;7.93;;;3.80;;
7497;SDS011;3790;48.806;9.140;2023-02-13T15:52:33;6.50;;;3.80;;
7497;SDS011;3790;48.806;9.140;2023-02-13T15:57:36;5.77;;;3.83;;
7497;SDS011;3790;48.806;9.140;2023-02-13T16:02:39;3.93;;;3.40;;
7497;SDS011;3790;48.806;9.140;2023-02-13T16:07:46;3.83;;;2.93;;
7497;SDS011;3790;48.806;9.140;2023-02-13T16:12:47;5.63;;;3.70;;
7497;SDS011;3790;48.806;9.140;2023-02-13T16:17:47;6.80;;;4.47;;
7497;SDS011;3790;48.806;9.140;2023-02-13T16:27:54;7.17;;;4.50;;
7497;SDS011;3790;48.806;9.140;2023-02-13T16:38:26;5.33;;;3.47;;
7497;SDS011;3790;48.806;9.140;2023-02-13T16:48:36;7.60;;;4.63;;
7497;SDS011;3790;48.806;9.140;2023-02-13T16:53:37;7.70;;;5.50;;
7497;SDS011;3790;48.806;9.140;2023-02-13T16:58:38;7.33;;;5.13;;
7497;SDS011;3790;48.806;9.140;2023-02-13T17:03:39;7.53;;;5.30;;
7497;SDS011;3790;48.806;9.140;2023-02-13T17:08:39;7.47;;;5.80;;
7497;SDS011;3790;48.806;9.140;2023-02-13T17:13:40;10.80;;;5.77;;
7497;SDS011;3790;48.806;9.140;2023-02-13T17:18:40;7.07;;;5.20;;
7497;SDS011;3790;48.806;9.140;2023-02-13T17:23:43;6.20;;;5.20;;
7497;SDS011;3790;48.806;9.140;2023-02-13T17:28:43;9.37;;;6.50;;
7497;SDS011;3790;48.806;9.140;2023-02-13T17:33:44;7.87;;;5.97;;
7497;SDS011;3790;48.806;9.140;2023-02-13T17:38:44;9.57;;;7.37;;
7497;SDS011;3790;48.806;9.140;2023-02-13T17:43:47;11.43;;;7.07;;
7497;SDS011;3790;48.806;9.140;2023-02-13T17:48:48;12.03;;;7.63;;
7497;SDS011;3790;48.806;9.140;2023-02-13T17:53:48;10.63;;;7.17;;
7497;SDS011;3790;48.806;9.140;2023-02-13T17:58:49;8.03;;;6.03;;
7497;SDS011;3790;48.806;9.140;2023-02-13T18:03:50;9.47;;;6.37;;
7497;SDS011;3790;48.806;9.140;2023-02-13T18:08:50;8.27;;;6.40;;
7497;SDS011;3790;48.806;9.140;2023-02-13T18:13:51;10.87;;;7.00;;
7497;SDS011;3790;48.806;9.140;2023-02-13T18:18:51;9.93;;;7.80;;
7497;SDS011;3790;48.806;9.140;2023-02-13T18:23:52;11.77;;;8.10;;
7497;SDS011;3790;48.806;9.140;2023-02-13T18:28:52;11.43;;;8.37;;
7497;SDS011;3790;48.806;9.140;2023-02-13T18:33:53;13.43;;;8.30;;
7497;SDS011;3790;48.806;9.140;2023-02-13T18:38:53;12.73;;;8.70;;
7497;SDS011;3790;48.806;9.140;2023-02-13T18:43:55;10.00;;;8.07;;
7497;SDS011;3790;48.806;9.140;2023-02-13T18:48:56;11.17;;;8.80;;
7497;SDS011;3790;48.806;9.140;2023-02-13T18:53:57;14.33;;;8.90;;
7497;SDS011;3790;48.806;9.140;2023-02-13T18:58:58;12.77;;;8.13;;
7497;SDS011;3790;48.806;9.140;2023-02-13T19:03:59;14.53;;;9.97;;
7497;SDS011;3790;48.806;9.140;2023-02-13T19:09:00;15.20;;;9.43;;
7497;SDS011;3790;48.806;9.140;2023-02-13T19:14:00;13.10;;;9.00;;
7497;SDS011;3790;48.806;9.140;2023-02-13T19:19:02;13.23;;;9.03;;
7497;SDS011;3790;48.806;9.140;2023-02-13T19:24:05;15.17;;;9.73;;
7497;SDS011;3790;48.806;9.140;2023-02-13T19:29:07;13.00;;;9.57;;
7497;SDS011;3790;48.806;9.140;2023-02-13T19:34:08;13.27;;;9.80;;
7497;SDS011;3790;48.806;9.140;2023-02-13T19:39:09;13.73;;;10.30;;
7497;SDS011;3790;48.806;9.140;2023-02-13T19:44:09;20.70;;;11.57;;
7497;SDS011;3790;48.806;9.140;2023-02-13T19:49:10;16.60;;;10.73;;
7497;SDS011;3790;48.806;9.140;2023-02-13T19:54:11;24.10;;;11.50;;
7497;SDS011;3790;48.806;9.140;2023-02-13T19:59:11;17.07;;;11.40;;
7497;SDS011;3790;48.806;9.140;2023-02-13T20:04:12;17.17;;;11.17;;
7497;SDS011;3790;48.806;9.140;2023-02-13T20:09:13;14.77;;;11.43;;
7497;SDS011;3790;48.806;9.140;2023-02-13T20:14:13;15.80;;;11.23;;
7497;SDS011;3790;48.806;9.140;2023-02-13T20:19:14;15.40;;;10.80;;
7497;SDS011;3790;48.806;9.140;2023-02-13T20:24:14;16.43;;;10.63;;
7497;SDS011;3790;48.806;9.140;2023-02-13T20:29:15;20.00;;;12.33;;
7497;SDS011;3790;48.806;9.140;2023-02-13T20:34:16;16.07;;;10.97;;
7497;SDS011;3790;48.806;9.140;2023-02-13T20:39:16;16.00;;;11.17;;
7497;SDS011;3790;48.806;9.140;2023-02-13T20:44:17;18.30;;;12.17;;
7497;SDS011;3790;48.806;9.140;2023-02-13T20:49:19;16.83;;;11.13;;
7497;SDS011;3790;48.806;9.140;2023-02-13T20:54:20;18.97;;;12.03;;
7497;SDS011;3790;48.806;9.140;2023-02-13T20:59:21;21.77;;;10.83;;
7497;SDS011;3790;48.806;9.140;2023-02-13T21:04:21;14.10;;;10.43;;
7497;SDS011;3790;48.806;9.140;2023-02-13T21:09:22;19.37;;;11.50;;
7497;SDS011;3790;48.806;9.140;2023-02-13T21:14:22;16.07;;;11.30;;
7497;SDS011;3790;48.806;9.140;2023-02-13T21:19:23;16.73;;;11.70;;
7497;SDS011;3790;48.806;9.140;2023-02-13T21:24:24;19.63;;;12.50;;
7497;SDS011;3790;48.806;9.140;2023-02-13T21:29:24;17.50;;;12.33;;
7497;SDS011;3790;48.806;9.140;2023-02-13T21:34:25;20.13;;;11.23;;
7497;SDS011;3790;48.806;9.140;2023-02-13T21:39:25;20.13;;;12.53;;
7497;SDS011;3790;48.806;9.140;2023-02-13T21:44:26;21.03;;;13.03;;
7497;SDS011;3790;48.806;9.140;2023-02-13T21:49:26;18.63;;;11.80;;
7497;SDS011;3790;48.806;9.140;2023-02-13T21:54:27;16.77;;;11.87;;
7497;SDS011;3790;48.806;9.140;2023-02-13T21:59:27;21.47;;;13.43;;
7497;SDS011;3790;48.806;9.140;2023-02-13T22:04:28;20.67;;;14.47;;
7497;SDS011;3790;48.806;9.140;2023-02-13T22:09:28;18.07;;;12.73;;
7497;SDS011;3790;48.806;9.140;2023-02-13T22:14:29;21.03;;;12.60;;
7497;SDS011;3790;48.806;9.140;2023-02-13T22:19:29;22.93;;;13.37;;
7497;SDS011;3790;48.806;9.140;2023-02-13T22:24:30;15.77;;;12.20;;
7497;SDS011;3790;48.806;9.140;2023-02-13T22:29:31;21.43;;;13.43;;
7497;SDS011;3790;48.806;9.140;2023-02-13T22:34:32;22.17;;;12.80;;
7497;SDS011;3790;48.806;9.140;2023-02-13T22:39:33;18.03;;;12.73;;
7497;SDS011;3790;48.806;9.140;2023-02-13T22:44:33;22.60;;;11.77;;
7497;SDS011;3790;48.806;9.140;2023-02-13T22:49:34;19.40;;;13.67;;
7497;SDS011;3790;48.806;9.140;2023-02-13T22:54:35;20.20;;;12.87;;
7497;SDS011;3790;48.806;9.140;2023-02-13T22:59:36;23.03;;;14.13;;
7497;SDS011;3790;48.806;9.140;2023-02-13T23:04:36;18.17;;;12.33;;
7497;SDS011;3790;48.806;9.140;2023-02-13T23:09:37;24.70;;;13.40;;
7497;SDS011;3790;48.806;9.140;2023-02-13T23:14:37;17.50;;;12.43;;
7497;SDS011;3790;48.806;9.140;2023-02-13T23:19:38;20.83;;;14.83;;
7497;SDS011;3790;48.806;9.140;2023-02-13T23:24:38;18.80;;;13.20;;
7497;SDS011;3790;48.806;9.140;2023-02-13T23:29:39;19.57;;;12.97;;
7497;SDS011;3790;48.806;9.140;2023-02-13T23:34:39;20.27;;;13.80;;
7497;SDS011;3790;48.806;9.140;2023-02-13T23:39:42;20.13;;;12.07;;
7497;SDS011;3790;48.806;9.140;2023-02-13T23:44:43;19.90;;;13.43;;
7497;SDS011;3790;48.806;9.140;2023-02-13T23:49:43;17.27;;;12.50;;
7497;SDS011;3790;48.806;9.140;2023-02-13T23:54:44;20.07;;;13.67;;
7497;SDS011;3790;48.806;9.140;2023-02-13T23:59:45;25.80;;;16.00;;
